createdAt,value
2023-02-19T00:01:54.374Z,99856.91
2023-02-19T00:06:57.356Z,99860.13
2023-02-19T00:12:00.255Z,99844.59
2023-02-19T00:17:03.208Z,99844.59
2023-02-19T00:22:05.933Z,99839.13
2023-02-19T00:27:08.761Z,99831.72
2023-02-19T00:32:11.574Z,99837.31
2023-02-19T00:37:14.326Z,99823.19
2023-02-19T00:42:17.073Z,99824.06
2023-02-19T00:47:20.125Z,99838.94
2023-02-19T00:52:23.436Z,99841.31
2023-02-19T00:57:26.265Z,99833.94
2023-02-19T01:02:29.101Z,99806.72
2023-02-19T01:07:35.338Z,99815.69
2023-02-19T01:12:38.259Z,99815.75
2023-02-19T01:17:40.963Z,99833.16
2023-02-19T01:22:43.803Z,99850.50
2023-02-19T01:27:47.070Z,99810.34
2023-02-19T01:32:49.836Z,99854.06
2023-02-19T01:37:54.673Z,99822.16
2023-02-19T01:42:57.618Z,99846.31
2023-02-19T01:48:27.905Z,99863.03
2023-02-19T01:53:38.228Z,99857.88
2023-02-19T01:58:41.442Z,99871.97
2023-02-19T02:03:47.398Z,99884.84
2023-02-19T02:09:14.584Z,99891.19
2023-02-19T02:14:20.794Z,99875.38
2023-02-19T02:19:27.386Z,99906.59
2023-02-19T02:24:34.742Z,99900.28
2023-02-19T02:30:05.956Z,99912.53
2023-02-19T02:35:13.609Z,99909.00
2023-02-19T02:40:19.113Z,99907.28
2023-02-19T02:45:36.002Z,99908.00
2023-02-19T02:51:14.138Z,99901.16
2023-02-19T02:56:38.151Z,99897.78
2023-02-19T03:02:14.907Z,99912.41
2023-02-19T03:07:18.982Z,99908.94
2023-02-19T03:12:42.414Z,99909.66
2023-02-19T03:18:11.923Z,99928.09
2023-02-19T03:23:18.098Z,99925.09
2023-02-19T03:28:43.225Z,99939.03
2023-02-19T03:33:54.039Z,99937.13
2023-02-19T03:39:04.836Z,99930.25
2023-02-19T03:44:37.327Z,99955.88
2023-02-19T03:49:40.720Z,99952.69
2023-02-19T03:55:02.741Z,99963.91
2023-02-19T04:00:23.675Z,99959.97
2023-02-19T04:05:30.347Z,99961.44
2023-02-19T04:10:34.226Z,99950.19
2023-02-19T04:15:40.667Z,99965.03
2023-02-19T04:20:45.906Z,99976.22
2023-02-19T04:25:52.528Z,99968.75
2023-02-19T04:30:55.787Z,99980.34
2023-02-19T04:35:58.772Z,99984.69
2023-02-19T04:41:01.575Z,99986.31
2023-02-19T04:46:04.477Z,99981.78
2023-02-19T04:51:08.843Z,99991.78
2023-02-19T04:56:15.150Z,99991.66
2023-02-19T05:01:18.028Z,100002.72
2023-02-19T05:06:20.835Z,99984.41
2023-02-19T05:11:24.214Z,99996.75
2023-02-19T05:16:26.962Z,99970.03
2023-02-19T05:21:29.981Z,99963.94
2023-02-19T05:26:32.744Z,99996.88
2023-02-19T05:31:35.734Z,100003.94
2023-02-19T05:36:39.882Z,99993.88
2023-02-19T05:41:42.667Z,100014.56
2023-02-19T05:46:45.603Z,100022.91
2023-02-19T05:51:51.665Z,100026.97
2023-02-19T05:56:54.220Z,100025.25
2023-02-19T06:01:58.505Z,100004.72
2023-02-19T06:07:01.192Z,100011.56
2023-02-19T06:12:04.162Z,100009.28
2023-02-19T06:17:06.952Z,100024.50
2023-02-19T06:22:10.583Z,100024.56
2023-02-19T06:27:13.750Z,100033.47
2023-02-19T06:32:17.421Z,100034.25
2023-02-19T06:37:20.461Z,100022.69
2023-02-19T06:42:23.259Z,100028.75
2023-02-19T06:47:26.289Z,100017.44
2023-02-19T06:52:29.213Z,100035.25
2023-02-19T06:57:32.408Z,100004.31
2023-02-19T07:02:35.181Z,100012.94
2023-02-19T07:07:38.148Z,100029.78
2023-02-19T07:12:41.013Z,100014.34
2023-02-19T07:17:43.848Z,100033.13
2023-02-19T07:22:46.621Z,100031.84
2023-02-19T07:27:49.657Z,100041.13
2023-02-19T07:32:52.504Z,100046.44
2023-02-19T07:37:55.566Z,100063.81
2023-02-19T07:43:00.653Z,100067.59
2023-02-19T07:48:03.950Z,100043.66
2023-02-19T07:53:06.865Z,100074.22
2023-02-19T07:58:09.595Z,100055.22
2023-02-19T08:03:12.540Z,100039.94
2023-02-19T08:08:16.552Z,100081.03
2023-02-19T08:13:19.593Z,100068.91
2023-02-19T08:18:24.600Z,100060.13
2023-02-19T08:23:28.572Z,100060.25
2023-02-19T08:28:31.843Z,100080.34
2023-02-19T08:33:35.109Z,100093.09
2023-02-19T08:38:38.136Z,100070.41
2023-02-19T08:43:42.549Z,100070.66
2023-02-19T08:48:45.483Z,100083.31
2023-02-19T08:53:48.562Z,100082.47
2023-02-19T08:58:51.532Z,100080.84
2023-02-19T09:03:54.973Z,100071.25
2023-02-19T09:08:57.813Z,100087.31
2023-02-19T09:14:02.401Z,100077.88
2023-02-19T09:19:05.420Z,100074.91
2023-02-19T09:24:09.872Z,100056.34
2023-02-19T09:29:19.472Z,100091.81
2023-02-19T09:34:33.448Z,100056.25
2023-02-19T09:39:36.991Z,100062.50
2023-02-19T09:44:42.527Z,100074.19
2023-02-19T09:49:52.378Z,100083.78
2023-02-19T09:54:59.609Z,100071.59
2023-02-19T10:00:25.928Z,100110.47
2023-02-19T10:05:29.560Z,100088.63
2023-02-19T10:10:37.813Z,100082.03
2023-02-19T10:16:16.093Z,100090.38
2023-02-19T10:21:22.886Z,100113.94
2023-02-19T10:26:26.011Z,100105.09
2023-02-19T10:31:32.051Z,100104.28
2023-02-19T10:36:45.565Z,100085.84
2023-02-19T10:41:50.900Z,100101.53
2023-02-19T10:46:57.103Z,100107.78
2023-02-19T10:52:29.753Z,100118.63
2023-02-19T10:57:34.735Z,100119.22
2023-02-19T11:02:37.627Z,100097.03
2023-02-19T11:07:46.649Z,100116.41
2023-02-19T11:12:52.218Z,100137.53
2023-02-19T11:18:01.919Z,100134.25
2023-02-19T11:23:18.285Z,100154.53
2023-02-19T11:28:39.132Z,100158.81
2023-02-19T11:33:49.195Z,100138.47
2023-02-19T11:38:52.263Z,100144.72
2023-02-19T11:44:06.970Z,100164.22
2023-02-19T11:49:18.108Z,100163.75
2023-02-19T11:54:54.834Z,100165.13
2023-02-19T12:00:23.018Z,100164.81
2023-02-19T12:05:40.078Z,100166.13
2023-02-19T12:11:09.370Z,100180.53
2023-02-19T12:16:26.860Z,100195.53
2023-02-19T12:21:51.716Z,100201.41
2023-02-19T12:27:16.329Z,100209.94
2023-02-19T12:32:28.603Z,100213.50
2023-02-19T12:38:00.726Z,100223.38
2023-02-19T12:43:15.779Z,100211.56
2023-02-19T12:48:26.242Z,100207.75
2023-02-19T12:53:33.467Z,100238.53
2023-02-19T12:58:43.588Z,100235.00
2023-02-19T13:04:04.925Z,100223.91
2023-02-19T13:09:20.090Z,100213.63
2023-02-19T13:14:30.249Z,100245.31
2023-02-19T13:19:33.915Z,100247.94
2023-02-19T13:24:42.321Z,100260.41
2023-02-19T13:30:07.139Z,100260.25
2023-02-19T13:35:18.620Z,100261.91
2023-02-19T13:40:37.450Z,100265.97
2023-02-19T13:45:46.189Z,100260.78
2023-02-19T13:50:49.271Z,100269.91
2023-02-19T13:55:53.526Z,100284.88
2023-02-19T14:00:56.739Z,100282.16
2023-02-19T14:06:04.610Z,100277.44
2023-02-19T14:11:08.773Z,100280.47
2023-02-19T14:16:33.628Z,100290.31
2023-02-19T14:21:39.382Z,100279.56
2023-02-19T14:26:43.063Z,100294.09
2023-02-19T14:31:47.260Z,100288.28
2023-02-19T14:36:55.826Z,100292.06
2023-02-19T14:42:03.107Z,100301.84
2023-02-19T14:47:09.763Z,100279.19
2023-02-19T14:52:28.780Z,100307.00
2023-02-19T14:57:43.968Z,100314.97
2023-02-19T15:02:46.942Z,100305.47
2023-02-19T15:07:51.793Z,100325.22
2023-02-19T15:12:58.226Z,100333.97
2023-02-19T15:18:03.096Z,100309.38
2023-02-19T15:23:07.055Z,100333.69
2023-02-19T15:28:39.071Z,100345.03
2023-02-19T15:33:50.714Z,100320.72
2023-02-19T15:38:56.317Z,100337.50
2023-02-19T15:44:21.484Z,100349.00
2023-02-19T15:49:37.838Z,100311.03
2023-02-19T15:54:56.236Z,100348.00
2023-02-19T16:00:27.601Z,100355.06
2023-02-19T16:05:31.491Z,100338.56
2023-02-19T16:10:34.416Z,100370.38
2023-02-19T16:15:40.147Z,100374.97
2023-02-19T16:20:47.780Z,100360.63
2023-02-19T16:26:00.271Z,100373.38
2023-02-19T16:31:06.279Z,100389.44
2023-02-19T16:36:20.772Z,100386.31
2023-02-19T16:41:23.746Z,100382.19
2023-02-19T16:46:26.444Z,100366.63
2023-02-19T16:51:29.496Z,100379.31
2023-02-19T16:56:32.524Z,100366.84
2023-02-19T17:01:37.134Z,100360.00
2023-02-19T17:06:40.364Z,100359.19
2023-02-19T17:11:43.290Z,100342.09
2023-02-19T17:16:46.493Z,100359.16
2023-02-19T17:21:50.367Z,100358.97
2023-02-19T17:26:53.316Z,100370.44
2023-02-19T17:31:56.438Z,100373.97
2023-02-19T17:36:59.940Z,100375.00
2023-02-19T17:42:03.489Z,100363.59
2023-02-19T17:47:06.856Z,100374.19
2023-02-19T17:52:10.815Z,100384.56
2023-02-19T17:57:13.832Z,100380.41
2023-02-19T18:02:17.143Z,100349.66
2023-02-19T18:07:20.238Z,100378.16
2023-02-19T18:12:25.972Z,100367.75
2023-02-19T18:17:28.931Z,100367.53
2023-02-19T18:22:36.742Z,100381.69
2023-02-19T18:27:39.817Z,100379.19
2023-02-19T18:32:42.888Z,100393.53
2023-02-19T18:37:46.348Z,100381.66
2023-02-19T18:43:34.245Z,100409.47
2023-02-19T18:49:53.471Z,100414.88
2023-02-19T19:02:29.718Z,100394.94
2023-02-19T21:16:22.150Z,100447.97
2023-02-19T22:35:51.326Z,100419.06
2023-02-19T22:42:39.295Z,100422.59
2023-02-19T23:48:06.881Z,100400.06
2023-02-19T23:54:28.056Z,100402.53
